createdAt,value
2022-11-23T00:02:07.406Z,3.53
2022-11-23T00:04:34.117Z,3.60
2022-11-23T00:07:00.811Z,3.56
2022-11-23T00:09:27.449Z,3.39
2022-11-23T00:11:54.069Z,3.25
2022-11-23T00:14:20.711Z,3.60
2022-11-23T00:16:47.298Z,3.55
2022-11-23T00:19:14.253Z,3.45
2022-11-23T00:21:40.985Z,3.44
2022-11-23T00:24:07.790Z,3.41
2022-11-23T00:26:34.705Z,3.46
2022-11-23T00:29:01.310Z,3.42
2022-11-23T00:31:28.151Z,3.54
2022-11-23T00:33:56.279Z,3.55
2022-11-23T00:36:24.558Z,3.58
2022-11-23T00:38:52.215Z,3.63
2022-11-23T00:41:22.293Z,3.55
2022-11-23T00:43:49.414Z,3.46
2022-11-23T00:46:17.434Z,3.53
2022-11-23T00:48:45.704Z,3.48
2022-11-23T00:51:15.481Z,3.46
2022-11-23T00:53:42.789Z,3.46
2022-11-23T00:56:10.233Z,3.46
2022-11-23T00:58:38.901Z,3.30
2022-11-23T01:01:14.740Z,3.28
2022-11-23T01:03:47.704Z,3.38
2022-11-23T01:06:17.621Z,3.42
2022-11-23T01:08:49.438Z,3.42
2022-11-23T01:11:16.069Z,3.47
2022-11-23T01:13:43.456Z,3.36
2022-11-23T01:16:18.213Z,3.42
2022-11-23T01:18:52.841Z,3.37
2022-11-23T01:21:19.497Z,3.18
2022-11-23T01:23:46.216Z,3.33
2022-11-23T01:26:12.937Z,3.25
2022-11-23T01:28:40.233Z,3.11
2022-11-23T01:31:15.893Z,3.25
2022-11-23T01:33:43.067Z,3.21
2022-11-23T01:36:15.379Z,3.26
2022-11-23T01:38:43.065Z,3.28
2022-11-23T01:41:13.644Z,3.29
2022-11-23T01:43:40.912Z,3.18
2022-11-23T01:46:08.233Z,2.89
2022-11-23T01:48:53.113Z,3.26
2022-11-23T01:51:24.025Z,3.18
2022-11-23T01:53:54.475Z,3.26
2022-11-23T01:56:28.713Z,2.99
2022-11-23T01:59:00.880Z,3.27
2022-11-23T02:01:27.521Z,3.26
2022-11-23T02:03:56.654Z,3.11
2022-11-23T02:06:23.685Z,2.95
2022-11-23T02:08:51.053Z,3.20
2022-11-23T02:11:17.885Z,3.13
2022-11-23T02:13:46.237Z,3.13
2022-11-23T02:16:13.463Z,3.17
2022-11-23T02:18:44.391Z,3.12
2022-11-23T02:21:12.001Z,3.17
2022-11-23T02:23:47.969Z,3.17
2022-11-23T02:26:25.882Z,3.19
2022-11-23T02:29:13.985Z,3.22
2022-11-23T02:31:40.837Z,3.16
2022-11-23T02:34:07.649Z,3.12
2022-11-23T02:36:41.699Z,3.11
2022-11-23T02:39:10.091Z,3.11
2022-11-23T02:41:39.351Z,3.04
2022-11-23T02:44:14.972Z,3.04
2022-11-23T02:46:41.908Z,3.05
2022-11-23T02:49:08.620Z,3.09
2022-11-23T02:51:35.672Z,3.03
2022-11-23T02:54:02.299Z,3.13
2022-11-23T02:56:29.080Z,3.01
2022-11-23T02:58:55.714Z,2.93
2022-11-23T03:01:22.485Z,3.03
2022-11-23T03:03:49.168Z,3.05
2022-11-23T03:06:15.833Z,2.95
2022-11-23T03:08:42.447Z,2.93
2022-11-23T03:11:09.158Z,2.99
2022-11-23T03:13:36.095Z,2.96
2022-11-23T03:16:02.758Z,2.96
2022-11-23T03:18:29.400Z,2.87
2022-11-23T03:20:56.068Z,2.92
2022-11-23T03:23:22.720Z,2.85
2022-11-23T03:25:56.474Z,2.80
2022-11-23T03:28:23.525Z,2.85
2022-11-23T03:30:50.581Z,2.73
2022-11-23T03:33:18.069Z,2.80
2022-11-23T03:35:46.090Z,2.89
2022-11-23T03:38:12.912Z,2.79
2022-11-23T03:40:39.664Z,2.88
2022-11-23T03:43:06.415Z,2.84
2022-11-23T03:45:33.200Z,2.72
2022-11-23T03:48:00.045Z,2.74
2022-11-23T03:50:27.222Z,2.85
2022-11-23T03:52:54.706Z,2.78
2022-11-23T03:55:21.530Z,2.84
2022-11-23T03:57:49.217Z,2.88
2022-11-23T04:00:16.384Z,2.81
2022-11-23T04:02:43.744Z,2.79
2022-11-23T04:05:10.948Z,2.84
2022-11-23T04:07:37.767Z,2.89
2022-11-23T04:10:04.935Z,2.86
2022-11-23T04:12:31.719Z,2.89
2022-11-23T04:14:58.326Z,2.84
2022-11-23T04:17:25.068Z,2.80
2022-11-23T04:19:51.880Z,2.79
2022-11-23T04:22:18.577Z,2.63
2022-11-23T04:24:45.287Z,2.82
2022-11-23T04:27:12.112Z,2.85
2022-11-23T04:29:38.946Z,2.84
2022-11-23T04:32:05.760Z,2.80
2022-11-23T04:34:32.468Z,2.75
2022-11-23T04:36:59.406Z,2.52
2022-11-23T04:39:26.077Z,2.92
2022-11-23T04:41:52.782Z,2.82
2022-11-23T04:44:21.261Z,3.06
2022-11-23T04:46:48.333Z,3.21
2022-11-23T04:49:15.948Z,2.96
2022-11-23T04:51:42.618Z,3.09
2022-11-23T04:54:09.702Z,3.31
2022-11-23T04:56:36.332Z,3.36
2022-11-23T04:59:03.007Z,3.40
2022-11-23T05:01:29.791Z,3.46
2022-11-23T05:03:56.405Z,3.50
2022-11-23T05:06:23.207Z,3.42
2022-11-23T05:08:49.872Z,3.48
2022-11-23T05:11:16.753Z,3.57
2022-11-23T05:13:43.471Z,3.65
2022-11-23T05:16:10.116Z,3.69
2022-11-23T05:18:36.716Z,3.76
2022-11-23T05:21:03.481Z,3.78
2022-11-23T05:23:30.274Z,3.86
2022-11-23T05:25:56.959Z,3.94
2022-11-23T05:28:39.713Z,4.01
2022-11-23T05:31:07.513Z,3.97
2022-11-23T05:33:34.162Z,3.89
2022-11-23T05:36:00.822Z,4.03
2022-11-23T05:38:28.133Z,3.99
2022-11-23T05:40:54.852Z,3.98
2022-11-23T05:43:21.537Z,4.03
2022-11-23T05:45:48.149Z,3.96
2022-11-23T05:48:15.010Z,3.92
2022-11-23T05:50:41.647Z,3.89
2022-11-23T05:53:09.962Z,3.82
2022-11-23T05:55:36.616Z,3.85
2022-11-23T05:58:03.900Z,3.66
2022-11-23T06:00:30.580Z,3.69
2022-11-23T06:03:03.399Z,3.90
2022-11-23T06:05:31.001Z,4.19
2022-11-23T06:07:57.663Z,4.39
2022-11-23T06:10:24.272Z,4.69
2022-11-23T06:12:51.796Z,5.23
2022-11-23T06:15:19.114Z,5.46
2022-11-23T06:17:45.747Z,5.85
2022-11-23T06:20:12.548Z,6.27
2022-11-23T06:22:39.309Z,6.32
2022-11-23T06:25:06.500Z,6.62
2022-11-23T06:27:33.099Z,6.59
2022-11-23T06:29:59.720Z,6.74
2022-11-23T06:32:26.473Z,6.84
2022-11-23T06:34:56.640Z,6.89
2022-11-23T06:37:26.300Z,6.79
2022-11-23T06:39:52.992Z,6.99
2022-11-23T06:45:07.112Z,7.29
2022-11-23T06:47:34.105Z,7.42
2022-11-23T06:50:00.948Z,7.46
2022-11-23T06:52:27.966Z,7.57
2022-11-23T06:54:54.892Z,7.38
2022-11-23T06:57:21.527Z,7.72
2022-11-23T06:59:48.555Z,7.82
2022-11-23T07:02:15.489Z,7.71
2022-11-23T07:04:42.553Z,7.77
2022-11-23T07:07:09.308Z,7.70
2022-11-23T07:09:36.295Z,7.95
2022-11-23T07:12:03.264Z,8.05
2022-11-23T07:14:29.983Z,8.05
2022-11-23T07:16:56.885Z,8.02
2022-11-23T07:19:23.553Z,8.08
2022-11-23T07:21:50.253Z,7.99
2022-11-23T07:24:16.874Z,8.06
2022-11-23T07:26:43.511Z,8.21
2022-11-23T07:29:10.679Z,8.11
2022-11-23T07:31:37.371Z,8.27
2022-11-23T07:34:05.050Z,8.25
2022-11-23T07:36:31.702Z,8.21
2022-11-23T07:38:58.342Z,8.15
2022-11-23T07:41:27.380Z,8.44
2022-11-23T07:43:54.573Z,8.38
2022-11-23T07:46:21.828Z,8.38
2022-11-23T07:48:48.591Z,8.50
2022-11-23T07:51:16.501Z,8.70
2022-11-23T07:53:43.148Z,8.63
2022-11-23T07:56:09.789Z,8.72
2022-11-23T07:58:36.514Z,8.68
2022-11-23T08:01:03.571Z,8.74
2022-11-23T08:03:30.688Z,8.88
2022-11-23T08:05:57.954Z,8.78
2022-11-23T08:08:24.921Z,8.85
2022-11-23T08:10:53.986Z,8.84
2022-11-23T08:13:22.305Z,8.77
2022-11-23T08:15:54.823Z,8.78
2022-11-23T08:18:22.140Z,8.85
2022-11-23T08:20:48.790Z,8.67
2022-11-23T08:23:15.513Z,8.80
2022-11-23T08:25:42.215Z,8.74
2022-11-23T08:28:09.767Z,8.86
2022-11-23T08:30:37.070Z,8.73
2022-11-23T08:33:05.066Z,9.16
2022-11-23T08:35:34.441Z,8.82
2022-11-23T08:38:01.045Z,8.65
2022-11-23T08:40:27.921Z,8.95
2022-11-23T08:42:55.086Z,8.79
2022-11-23T08:45:22.408Z,8.91
2022-11-23T08:47:49.589Z,8.85
2022-11-23T08:50:16.283Z,8.81
2022-11-23T08:52:43.179Z,9.03
2022-11-23T08:55:10.492Z,8.89
2022-11-23T08:57:37.216Z,8.88
2022-11-23T09:00:06.328Z,8.99
2022-11-23T09:02:33.261Z,9.11
2022-11-23T09:05:01.698Z,8.93
2022-11-23T09:07:28.370Z,9.12
2022-11-23T09:09:55.077Z,9.20
2022-11-23T09:12:21.672Z,9.20
2022-11-23T09:14:48.249Z,9.15
2022-11-23T09:17:14.958Z,9.11
2022-11-23T09:19:41.640Z,8.89
2022-11-23T09:22:08.317Z,9.17
2022-11-23T09:24:35.204Z,9.07
2022-11-23T09:27:02.502Z,9.34
2022-11-23T09:29:29.191Z,9.20
2022-11-23T09:31:55.908Z,9.13
2022-11-23T09:34:23.170Z,9.13
2022-11-23T09:36:49.790Z,9.27
2022-11-23T09:39:16.479Z,9.18
2022-11-23T09:42:08.165Z,9.46
2022-11-23T09:44:35.157Z,9.18
2022-11-23T09:47:53.034Z,9.39
2022-11-23T09:50:58.949Z,9.36
2022-11-23T09:53:34.707Z,9.31
2022-11-23T09:56:02.235Z,9.09
2022-11-23T09:58:39.484Z,9.25
2022-11-23T10:01:14.974Z,9.24
2022-11-23T10:03:48.456Z,9.47
2022-11-23T10:06:26.125Z,8.96
2022-11-23T10:09:11.240Z,9.49
2022-11-23T10:12:00.254Z,9.42
2022-11-23T10:14:44.906Z,9.69
2022-11-23T10:17:14.598Z,9.53
2022-11-23T10:20:08.315Z,9.34
2022-11-23T10:22:37.853Z,9.66
2022-11-23T10:25:16.613Z,9.47
2022-11-23T10:27:46.037Z,9.40
2022-11-23T10:30:15.981Z,9.54
2022-11-23T10:32:50.909Z,9.46
2022-11-23T10:35:30.489Z,9.67
2022-11-23T10:38:18.736Z,9.60
2022-11-23T10:40:53.000Z,9.54
2022-11-23T10:43:25.476Z,9.46
2022-11-23T10:45:57.233Z,9.79
2022-11-23T10:48:35.358Z,9.72
2022-11-23T10:51:28.093Z,9.88
2022-11-23T10:54:04.922Z,9.70
2022-11-23T10:56:33.817Z,9.57
2022-11-23T10:59:00.917Z,9.52
2022-11-23T11:01:29.767Z,9.74
2022-11-23T11:04:04.105Z,9.92
2022-11-23T11:06:34.232Z,9.75
2022-11-23T11:09:06.431Z,9.39
2022-11-23T11:11:45.726Z,9.58
2022-11-23T11:14:18.740Z,9.61
2022-11-23T11:16:54.309Z,9.64
2022-11-23T11:19:31.521Z,9.62
2022-11-23T11:22:01.066Z,9.63
2022-11-23T11:24:38.962Z,9.58
2022-11-23T11:27:13.929Z,9.42
2022-11-23T11:29:52.042Z,9.61
2022-11-23T11:32:26.414Z,9.84
2022-11-23T11:35:08.456Z,9.42
2022-11-23T11:37:38.304Z,9.54
2022-11-23T11:40:20.477Z,9.50
2022-11-23T11:42:50.711Z,9.80
2022-11-23T11:45:24.121Z,9.82
2022-11-23T11:48:18.309Z,9.68
2022-11-23T11:51:00.834Z,9.76
2022-11-23T11:53:53.888Z,9.88
2022-11-23T11:56:31.253Z,9.80
2022-11-23T11:59:24.449Z,9.68
2022-11-23T12:01:51.248Z,9.77
2022-11-23T12:04:43.494Z,9.69
2022-11-23T12:07:26.009Z,9.78
2022-11-23T12:10:00.732Z,9.65
2022-11-23T12:12:29.991Z,9.77
2022-11-23T12:14:57.055Z,9.36
2022-11-23T12:17:42.258Z,9.77
2022-11-23T12:20:22.353Z,9.65
2022-11-23T12:22:55.134Z,9.66
2022-11-23T12:25:34.634Z,9.81
2022-11-23T12:28:20.130Z,9.66
2022-11-23T12:31:23.906Z,9.84
2022-11-23T12:34:02.845Z,9.80
2022-11-23T12:36:41.740Z,9.81
2022-11-23T12:39:35.208Z,9.83
2022-11-23T12:42:17.966Z,9.59
2022-11-23T12:45:07.349Z,9.58
2022-11-23T12:47:52.846Z,9.64
2022-11-23T12:50:41.045Z,9.59
2022-11-23T12:53:24.138Z,9.79
2022-11-23T12:55:57.763Z,9.71
2022-11-23T12:58:29.706Z,9.50
2022-11-23T13:00:59.187Z,9.68
2022-11-23T13:04:04.790Z,9.82
2022-11-23T13:07:12.737Z,9.63
2022-11-23T13:10:18.696Z,9.45
2022-11-23T13:13:15.626Z,9.45
2022-11-23T13:16:11.262Z,9.43
2022-11-23T13:19:00.160Z,9.53
2022-11-23T13:21:39.584Z,9.35
2022-11-23T13:24:32.922Z,9.13
2022-11-23T13:27:15.123Z,9.38
2022-11-23T13:29:51.313Z,9.50
2022-11-23T13:32:39.768Z,9.44
2022-11-23T13:35:21.880Z,9.43
2022-11-23T13:38:14.206Z,9.29
2022-11-23T13:40:43.107Z,8.97
2022-11-23T13:43:17.908Z,9.10
2022-11-23T13:45:45.315Z,9.40
2022-11-23T13:51:02.078Z,9.62
2022-11-23T13:53:35.210Z,9.34
2022-11-23T13:56:31.366Z,9.30
2022-11-23T13:59:20.238Z,9.47
2022-11-23T14:02:08.959Z,9.58
2022-11-23T14:04:41.093Z,9.45
2022-11-23T14:07:19.545Z,9.52
2022-11-23T14:09:57.720Z,9.65
2022-11-23T14:12:39.027Z,9.73
2022-11-23T14:15:21.194Z,9.78
2022-11-23T14:18:03.465Z,9.69
2022-11-23T14:20:36.061Z,9.79
2022-11-23T14:23:40.334Z,9.69
2022-11-23T14:26:19.152Z,9.62
2022-11-23T14:29:23.232Z,9.57
2022-11-23T14:32:11.823Z,9.55
2022-11-23T14:35:00.196Z,9.63
2022-11-23T14:38:04.451Z,9.52
2022-11-23T14:40:46.337Z,9.36
2022-11-23T14:43:19.473Z,9.42
2022-11-23T14:45:47.562Z,9.50
2022-11-23T14:48:39.118Z,9.41
2022-11-23T14:51:12.320Z,9.72
2022-11-23T14:53:47.060Z,9.89
2022-11-23T14:56:29.526Z,9.82
2022-11-23T14:59:19.055Z,9.78
2022-11-23T15:01:53.539Z,9.65
2022-11-23T15:04:36.685Z,9.75
2022-11-23T15:07:06.373Z,9.64
2022-11-23T15:10:05.240Z,9.51
2022-11-23T15:12:51.733Z,9.61
2022-11-23T15:15:22.668Z,9.67
2022-11-23T15:17:57.021Z,9.30
2022-11-23T15:20:27.979Z,9.59
2022-11-23T15:22:54.879Z,9.59
2022-11-23T15:25:21.743Z,9.22
2022-11-23T15:27:49.315Z,9.63
2022-11-23T15:30:21.058Z,9.85
2022-11-23T15:33:02.521Z,9.64
2022-11-23T15:35:34.540Z,9.57
2022-11-23T15:38:03.381Z,9.60
2022-11-23T15:40:36.996Z,9.60
2022-11-23T15:43:04.195Z,9.39
2022-11-23T15:45:37.442Z,9.55
2022-11-23T15:48:17.557Z,9.46
2022-11-23T15:50:52.132Z,9.34
2022-11-23T15:53:25.261Z,9.32
2022-11-23T15:55:53.507Z,9.52
2022-11-23T15:58:21.216Z,9.25
2022-11-23T16:01:10.171Z,9.10
2022-11-23T16:03:39.850Z,9.24
2022-11-23T16:06:36.863Z,8.96
2022-11-23T16:12:33.749Z,8.76
2022-11-23T16:15:37.896Z,9.16
2022-11-23T16:18:07.095Z,9.16
2022-11-23T16:20:33.944Z,9.01
2022-11-23T16:23:01.192Z,9.07
2022-11-23T16:25:34.053Z,9.24
2022-11-23T16:28:01.839Z,9.03
2022-11-23T16:30:40.877Z,9.02
2022-11-23T16:33:14.990Z,9.04
2022-11-23T16:35:41.864Z,9.22
2022-11-23T16:38:08.585Z,9.00
2022-11-23T16:40:35.307Z,9.02
2022-11-23T16:43:04.048Z,9.05
2022-11-23T16:45:31.604Z,9.14
2022-11-23T16:48:00.549Z,9.12
2022-11-23T16:50:29.581Z,8.79
2022-11-23T16:52:56.631Z,8.86
2022-11-23T16:55:23.355Z,8.65
2022-11-23T16:57:50.110Z,8.57
2022-11-23T17:00:20.661Z,8.54
2022-11-23T17:02:47.461Z,8.72
2022-11-23T17:05:20.050Z,8.97
2022-11-23T17:07:47.172Z,8.67
2022-11-23T17:10:14.855Z,8.87
2022-11-23T17:12:49.564Z,8.58
2022-11-23T17:15:18.030Z,8.72
2022-11-23T17:17:44.709Z,8.71
2022-11-23T17:20:16.081Z,8.88
2022-11-23T17:22:43.368Z,8.67
2022-11-23T17:25:15.078Z,8.76
2022-11-23T17:27:42.412Z,8.68
2022-11-23T17:30:20.899Z,8.87
2022-11-23T17:32:49.197Z,8.74
2022-11-23T17:35:16.759Z,8.60
2022-11-23T17:37:44.019Z,8.73
2022-11-23T17:40:18.885Z,8.47
2022-11-23T17:42:45.912Z,8.68
2022-11-23T17:45:13.419Z,8.74
2022-11-23T17:47:42.719Z,8.50
2022-11-23T17:50:17.938Z,8.56
2022-11-23T17:52:48.610Z,8.49
2022-11-23T17:55:16.015Z,8.54
2022-11-23T17:57:43.558Z,8.63
2022-11-23T18:00:19.306Z,8.48
2022-11-23T18:02:46.332Z,8.63
2022-11-23T18:05:16.506Z,8.41
2022-11-23T18:07:46.132Z,8.71
2022-11-23T18:10:16.384Z,8.51
2022-11-23T18:12:44.755Z,8.25
2022-11-23T18:15:11.993Z,8.12
2022-11-23T18:17:38.877Z,8.27
2022-11-23T18:20:08.325Z,8.23
2022-11-23T18:22:35.460Z,8.30
2022-11-23T18:25:02.454Z,8.07
2022-11-23T18:27:30.034Z,8.22
2022-11-23T18:29:56.865Z,8.11
2022-11-23T18:32:24.321Z,8.14
2022-11-23T18:34:54.095Z,8.09
2022-11-23T18:37:20.752Z,8.07
2022-11-23T18:39:47.470Z,8.03
2022-11-23T18:42:14.376Z,7.83
2022-11-23T18:44:41.011Z,8.17
2022-11-23T18:47:07.684Z,7.98
2022-11-23T18:49:34.579Z,7.87
2022-11-23T18:52:01.478Z,7.93
2022-11-23T18:54:28.116Z,7.87
2022-11-23T18:56:54.768Z,7.95
2022-11-23T19:02:12.830Z,7.96
2022-11-23T19:04:39.923Z,7.77
2022-11-23T19:07:06.635Z,7.94
2022-11-23T19:09:34.850Z,7.87
2022-11-23T19:12:01.861Z,7.93
2022-11-23T19:14:28.529Z,7.88
2022-11-23T19:16:55.216Z,7.94
2022-11-23T19:19:21.840Z,7.74
2022-11-23T19:21:48.542Z,7.77
2022-11-23T19:24:15.206Z,7.63
2022-11-23T19:26:41.847Z,7.75
2022-11-23T19:29:08.602Z,7.68
2022-11-23T19:31:35.269Z,7.31
2022-11-23T19:34:05.943Z,7.44
2022-11-23T19:36:36.452Z,7.64
2022-11-23T19:39:05.297Z,7.71
2022-11-23T19:41:32.536Z,7.46
2022-11-23T19:44:00.652Z,7.71
2022-11-23T19:46:29.627Z,7.71
2022-11-23T19:48:58.258Z,7.65
2022-11-23T19:51:26.131Z,7.66
2022-11-23T19:53:54.897Z,7.52
2022-11-23T19:56:26.554Z,7.35
2022-11-23T19:58:55.312Z,7.73
2022-11-23T20:01:23.674Z,7.89
2022-11-23T20:03:52.289Z,8.01
2022-11-23T20:06:24.097Z,8.05
2022-11-23T20:08:58.820Z,8.33
2022-11-23T20:11:28.166Z,8.30
2022-11-23T20:13:58.902Z,8.34
2022-11-23T20:16:27.160Z,8.38
2022-11-23T20:19:02.399Z,8.28
2022-11-23T20:21:30.055Z,8.52
2022-11-23T20:24:05.184Z,8.58
2022-11-23T20:26:34.248Z,8.48
2022-11-23T20:29:01.256Z,8.41
2022-11-23T20:31:32.835Z,8.49
2022-11-23T20:34:00.237Z,8.61
2022-11-23T20:36:35.203Z,8.64
2022-11-23T20:39:04.472Z,8.60
2022-11-23T20:41:36.552Z,8.61
2022-11-23T20:44:11.730Z,8.74
2022-11-23T20:47:00.668Z,8.84
2022-11-23T20:49:25.570Z,8.67
2022-11-23T20:51:52.165Z,8.87
2022-11-23T20:54:19.516Z,8.92
2022-11-23T20:56:46.237Z,8.84
2022-11-23T20:59:12.989Z,8.71
2022-11-23T21:01:42.609Z,8.74
2022-11-23T21:04:09.449Z,8.88
2022-11-23T21:06:39.484Z,8.86
2022-11-23T21:09:07.930Z,8.93
2022-11-23T21:11:53.322Z,8.84
2022-11-23T21:14:23.955Z,8.92
2022-11-23T21:16:55.985Z,8.81
2022-11-23T21:19:29.144Z,8.86
2022-11-23T21:21:57.326Z,8.91
2022-11-23T21:24:24.662Z,8.80
2022-11-23T21:26:51.814Z,8.85
2022-11-23T21:29:19.233Z,8.98
2022-11-23T21:31:47.767Z,8.86
2022-11-23T21:34:23.180Z,8.72
2022-11-23T21:36:50.354Z,8.95
2022-11-23T21:39:17.583Z,9.00
2022-11-23T21:41:45.106Z,8.96
2022-11-23T21:44:12.223Z,8.91
2022-11-23T21:46:41.029Z,8.80
2022-11-23T21:49:07.920Z,8.85
2022-11-23T21:51:35.574Z,8.90
2022-11-23T21:54:05.471Z,8.95
2022-11-23T21:56:32.818Z,8.71
2022-11-23T21:59:00.188Z,8.71
2022-11-23T22:01:34.827Z,8.70
2022-11-23T22:04:05.369Z,8.60
2022-11-23T22:06:32.220Z,8.55
2022-11-23T22:09:02.125Z,8.66
2022-11-23T22:11:31.379Z,8.59
2022-11-23T22:14:05.014Z,8.58
2022-11-23T22:16:34.293Z,8.55
2022-11-23T22:19:01.437Z,8.49
2022-11-23T22:21:33.302Z,8.64
2022-11-23T22:24:00.349Z,8.62
2022-11-23T22:26:28.016Z,8.76
2022-11-23T22:28:55.993Z,8.69
2022-11-23T22:31:25.008Z,8.71
2022-11-23T22:33:55.081Z,8.73
2022-11-23T22:36:23.781Z,8.39
2022-11-23T22:39:02.468Z,8.76
2022-11-23T22:41:30.813Z,8.73
2022-11-23T22:43:57.701Z,8.79
2022-11-23T22:46:25.585Z,8.78
2022-11-23T22:48:53.140Z,8.72
2022-11-23T22:51:23.700Z,8.72
2022-11-23T22:53:54.527Z,8.68
2022-11-23T22:56:21.696Z,8.78
2022-11-23T22:58:49.245Z,8.67
2022-11-23T23:01:18.437Z,8.77
2022-11-23T23:03:45.716Z,8.92
2022-11-23T23:06:17.924Z,9.04
2022-11-23T23:08:46.149Z,8.92
2022-11-23T23:11:14.307Z,8.88
2022-11-23T23:13:41.240Z,9.00
2022-11-23T23:16:11.901Z,8.96
2022-11-23T23:18:39.256Z,8.87
2022-11-23T23:21:17.892Z,8.89
2022-11-23T23:23:47.362Z,8.82
2022-11-23T23:26:16.124Z,8.65
2022-11-23T23:28:43.483Z,8.66
2022-11-23T23:31:12.663Z,8.55
2022-11-23T23:33:40.989Z,8.72
2022-11-23T23:36:14.332Z,8.83
2022-11-23T23:38:41.766Z,8.84
2022-11-23T23:41:10.183Z,8.73
2022-11-23T23:43:37.045Z,8.93
2022-11-23T23:46:06.515Z,8.93
2022-11-23T23:48:35.486Z,8.69
2022-11-23T23:51:12.745Z,8.77
2022-11-23T23:53:40.572Z,8.61
2022-11-23T23:56:12.657Z,8.63
2022-11-23T23:58:39.295Z,8.53
